Time;durP1;ratioP1;P1;durP2;ratioP2;P2;SDS_P1;SDS_P2;PMS_P1;PMS_P2;Temp;Humidity;BMP_temperature;BMP_pressure;BME280_temperature;BME280_humidity;BME280_pressure;Samples;Min_cycle;Max_cycle;Signal;HPM_P1;HPM_P2
2021/04/23 00:02:00;;;;;;;8.43;3.57;;;4.80;53.50;;;;;;5061286;28;20285;-85
2021/04/23 00:04:27;;;;;;;6.87;3.77;;;4.70;54.80;;;;;;5057588;28;20203;-85
2021/04/23 00:06:57;;;;;;;6.83;3.67;;;4.60;55.60;;;;;;5071577;28;20218;-85
2021/04/23 00:09:26;;;;;;;7.10;4.07;;;4.60;54.60;;;;;;5055396;28;20561;-84
2021/04/23 00:11:56;;;;;;;8.13;3.67;;;4.60;55.10;;;;;;5046113;28;20711;-84
2021/04/23 00:14:25;;;;;;;7.07;4.10;;;4.70;55.30;;;;;;5049793;28;20532;-84
2021/04/23 00:16:52;;;;;;;9.70;3.90;;;4.70;55.80;;;;;;5051844;28;20701;-85
2021/04/23 00:19:21;;;;;;;7.97;3.50;;;4.70;55.80;;;;;;5058528;28;20221;-84
2021/04/23 00:21:48;;;;;;;7.90;3.93;;;4.70;56.30;;;;;;5062865;28;20217;-86
2021/04/23 00:24:17;;;;;;;8.07;3.83;;;4.80;57.20;;;;;;5059070;28;20194;-85
2021/04/23 00:26:43;;;;;;;5.70;3.63;;;4.90;56.70;;;;;;5051960;28;20289;-85
2021/04/23 00:29:10;;;;;;;6.10;3.70;;;4.90;56.50;;;;;;5052933;28;20198;-87
2021/04/23 00:31:38;;;;;;;9.27;3.93;;;4.80;57.00;;;;;;5050827;28;20585;-85
2021/04/23 00:34:07;;;;;;;5.50;3.80;;;4.80;58.00;;;;;;5045958;28;20623;-85
2021/04/23 00:36:33;;;;;;;8.70;3.70;;;4.80;58.20;;;;;;5055005;28;20210;-84
2021/04/23 00:39:00;;;;;;;8.67;3.97;;;4.80;58.10;;;;;;5056845;28;20493;-84
2021/04/23 00:41:30;;;;;;;5.17;3.60;;;4.80;57.50;;;;;;5056475;28;20304;-84
2021/04/23 00:43:57;;;;;;;6.43;3.70;;;4.80;57.50;;;;;;5055478;28;20700;-85
2021/04/23 00:46:26;;;;;;;5.97;3.40;;;4.70;56.40;;;;;;5052551;28;20226;-84
2021/04/23 00:48:53;;;;;;;6.57;3.87;;;4.60;56.70;;;;;;5053970;28;20297;-86
2021/04/23 00:51:23;;;;;;;7.20;3.90;;;4.60;57.60;;;;;;5057539;28;20210;-84
2021/04/23 00:53:52;;;;;;;9.37;3.93;;;4.40;58.40;;;;;;5067608;28;20224;-85
2021/04/23 00:56:21;;;;;;;8.47;4.20;;;4.30;59.10;;;;;;5060391;28;20199;-86
2021/04/23 00:58:49;;;;;;;8.80;3.80;;;4.30;60.60;;;;;;5056446;28;20209;-84
2021/04/23 01:01:19;;;;;;;8.80;4.10;;;4.40;60.70;;;;;;5052263;28;20205;-86
2021/04/23 01:03:46;;;;;;;7.17;4.13;;;4.30;61.60;;;;;;5053136;28;20202;-87
2021/04/23 01:06:15;;;;;;;6.67;4.13;;;4.20;62.40;;;;;;5057546;28;20210;-84
2021/04/23 01:08:42;;;;;;;9.10;3.50;;;4.10;64.10;;;;;;5054995;28;20618;-85
2021/04/23 01:11:09;;;;;;;5.30;4.00;;;4.00;65.00;;;;;;5048445;28;20203;-85
2021/04/23 01:13:36;;;;;;;9.27;3.80;;;4.00;66.20;;;;;;5055906;28;20649;-86
2021/04/23 01:16:07;;;;;;;6.67;3.80;;;4.00;64.00;;;;;;5049458;28;20210;-84
2021/04/23 01:18:34;;;;;;;9.73;4.67;;;4.00;65.30;;;;;;5055307;28;20229;-84
2021/04/23 01:21:06;;;;;;;8.90;4.30;;;3.90;65.30;;;;;;5058816;28;20210;-85
2021/04/23 01:23:33;;;;;;;5.83;3.73;;;3.80;68.50;;;;;;5056658;28;20209;-84
2021/04/23 01:25:59;;;;;;;7.07;3.93;;;3.80;68.50;;;;;;5060252;28;20212;-85
2021/04/23 01:28:28;;;;;;;6.77;3.83;;;3.70;68.40;;;;;;5055396;28;20232;-86
2021/04/23 01:30:54;;;;;;;5.67;3.93;;;3.80;68.60;;;;;;5058392;28;20210;-85
2021/04/23 01:33:21;;;;;;;8.33;4.07;;;3.70;68.40;;;;;;5057493;28;20233;-86
2021/04/23 01:35:47;;;;;;;6.17;3.43;;;3.80;68.50;;;;;;5060095;28;20212;-85
2021/04/23 01:38:15;;;;;;;9.03;3.30;;;3.80;68.50;;;;;;5049522;28;20223;-84
2021/04/23 01:40:42;;;;;;;8.17;4.80;;;3.80;68.50;;;;;;5050303;28;20233;-84
2021/04/23 01:43:09;;;;;;;4.70;3.40;;;3.60;68.30;;;;;;5053434;28;20256;-86
2021/04/23 01:45:35;;;;;;;8.13;4.07;;;3.70;68.40;;;;;;5051846;28;20198;-85
2021/04/23 01:48:02;;;;;;;5.57;3.90;;;3.70;68.40;;;;;;5054117;28;20266;-85
2021/04/23 01:50:28;;;;;;;9.43;4.13;;;3.70;68.40;;;;;;5059338;28;20202;-84
2021/04/23 01:52:54;;;;;;;6.20;3.57;;;3.60;68.30;;;;;;5052960;28;20258;-86
2021/04/23 01:55:24;;;;;;;8.60;4.00;;;3.60;68.30;;;;;;5056199;28;20209;-85
2021/04/23 01:57:50;;;;;;;5.13;3.30;;;3.60;68.30;;;;;;5055525;28;20228;-88
2021/04/23 02:00:21;;;;;;;6.50;3.53;;;3.60;68.30;;;;;;5059440;28;20217;-84
2021/04/23 02:02:49;;;;;;;6.13;3.40;;;3.60;68.30;;;;;;5057060;28;20235;-86
2021/04/23 02:05:16;;;;;;;5.73;3.60;;;3.50;68.10;;;;;;5060560;28;20208;-85
2021/04/23 02:07:42;;;;;;;6.17;3.53;;;3.40;69.60;;;;;;5054681;28;20225;-87
2021/04/23 02:10:14;;;;;;;7.30;4.00;;;3.30;72.10;;;;;;5055648;28;20266;-87
2021/04/23 02:12:42;;;;;;;5.43;3.20;;;3.30;73.20;;;;;;5058792;28;20233;-88
2021/04/23 02:15:11;;;;;;;5.47;3.70;;;3.20;73.10;;;;;;5061956;28;20205;-87
2021/04/23 02:17:38;;;;;;;8.07;4.03;;;3.30;74.20;;;;;;5057911;28;20255;-87
2021/04/23 02:20:09;;;;;;;5.93;3.83;;;3.30;75.20;;;;;;5059793;28;20255;-84
2021/04/23 02:22:36;;;;;;;5.83;3.57;;;3.20;76.00;;;;;;5067386;28;20222;-83
2021/04/23 02:25:03;;;;;;;6.20;4.00;;;3.20;75.80;;;;;;5065550;28;20248;-86
2021/04/23 02:27:29;;;;;;;5.50;3.60;;;3.20;75.80;;;;;;5068653;28;20237;-84
2021/04/23 02:29:56;;;;;;;6.87;3.40;;;3.20;76.40;;;;;;5074581;28;20193;-83
2021/04/23 02:32:23;;;;;;;5.73;3.43;;;3.10;76.40;;;;;;5059973;28;20236;-83
2021/04/23 02:34:49;;;;;;;6.33;3.87;;;3.10;75.60;;;;;;5056956;28;20685;-83
2021/04/23 02:37:16;;;;;;;5.03;3.37;;;3.00;76.80;;;;;;5054435;28;20586;-83
2021/04/23 02:39:42;;;;;;;7.27;3.40;;;3.00;76.40;;;;;;5060612;28;20232;-86
2021/04/23 02:42:09;;;;;;;5.47;3.53;;;3.00;76.10;;;;;;5056299;28;20228;-82
2021/04/23 02:44:36;;;;;;;7.20;3.43;;;2.90;76.40;;;;;;5056786;28;20205;-83
2021/04/23 02:47:04;;;;;;;5.83;3.70;;;2.80;76.80;;;;;;5064588;28;20228;-82
2021/04/23 02:49:30;;;;;;;5.97;3.33;;;2.80;78.30;;;;;;5058704;28;20201;-82
2021/04/23 02:51:56;;;;;;;6.47;3.33;;;2.80;76.30;;;;;;5055542;28;20225;-84
2021/04/23 02:54:24;;;;;;;5.47;3.40;;;2.90;75.80;;;;;;5058298;28;20288;-86
2021/04/23 02:56:50;;;;;;;5.13;3.30;;;2.90;75.80;;;;;;5051394;28;20319;-84
2021/04/23 02:59:18;;;;;;;5.50;3.37;;;2.90;75.60;;;;;;5066928;28;20395;-83
2021/04/23 03:01:48;;;;;;;8.57;3.50;;;2.80;75.90;;;;;;5058699;28;20236;-83
2021/04/23 03:04:15;;;;;;;7.70;3.50;;;2.70;76.40;;;;;;5060499;28;20205;-83
2021/04/23 03:06:42;;;;;;;4.73;3.33;;;2.60;77.80;;;;;;5060288;28;20231;-85
2021/04/23 03:09:09;;;;;;;5.50;3.37;;;2.70;77.50;;;;;;5059048;28;20274;-82
2021/04/23 03:11:37;;;;;;;6.47;3.50;;;2.70;77.10;;;;;;5055742;28;20601;-82
2021/04/23 03:14:03;;;;;;;7.10;3.80;;;2.80;76.90;;;;;;5060023;28;20220;-83
2021/04/23 03:16:31;;;;;;;6.80;3.67;;;2.70;76.50;;;;;;5052076;28;20254;-84
2021/04/23 03:18:58;;;;;;;9.10;3.83;;;2.70;78.60;;;;;;5062354;28;20218;-84
2021/04/23 03:21:27;;;;;;;7.80;3.80;;;2.60;77.90;;;;;;5060007;28;20243;-84
2021/04/23 03:23:54;;;;;;;8.80;4.57;;;2.70;78.10;;;;;;5061903;28;20200;-83
2021/04/23 03:26:22;;;;;;;11.77;4.10;;;2.80;77.20;;;;;;5055314;28;20202;-84
2021/04/23 03:28:49;;;;;;;12.57;4.17;;;2.80;76.70;;;;;;5062660;28;20299;-87
2021/04/23 03:31:17;;;;;;;8.30;4.17;;;2.70;76.70;;;;;;5060064;28;20274;-83
2021/04/23 03:33:44;;;;;;;11.03;3.97;;;2.60;77.30;;;;;;5062781;28;20255;-83
2021/04/23 03:36:12;;;;;;;7.10;3.60;;;2.60;78.10;;;;;;5058344;28;20202;-83
2021/04/23 03:38:43;;;;;;;9.73;3.67;;;2.60;78.60;;;;;;5056087;28;20266;-83
2021/04/23 03:41:14;;;;;;;7.87;3.63;;;2.60;77.80;;;;;;5058179;28;20227;-83
2021/04/23 03:43:41;;;;;;;5.47;4.00;;;2.60;77.40;;;;;;5053297;28;20201;-84
2021/04/23 03:46:07;;;;;;;4.87;3.60;;;2.60;77.40;;;;;;5057531;28;20212;-84
2021/04/23 03:48:34;;;;;;;6.33;3.63;;;2.60;77.40;;;;;;5053453;28;20204;-85
2021/04/23 03:51:01;;;;;;;6.03;3.90;;;2.60;77.80;;;;;;5056626;28;20223;-84
2021/04/23 03:53:28;;;;;;;7.77;3.70;;;2.50;77.90;;;;;;5050548;28;20690;-86
2021/04/23 03:55:55;;;;;;;7.23;3.30;;;2.50;78.60;;;;;;5057909;28;20223;-83
2021/04/23 03:58:23;;;;;;;9.80;3.90;;;2.50;78.50;;;;;;5055233;28;20227;-84
2021/04/23 04:00:53;;;;;;;7.10;3.70;;;2.50;78.90;;;;;;5058547;28;20290;-83
2021/04/23 04:03:21;;;;;;;7.97;3.50;;;2.40;78.90;;;;;;5058207;28;20234;-86
2021/04/23 04:05:47;;;;;;;5.00;3.70;;;2.40;79.20;;;;;;5056074;28;20208;-82
2021/04/23 04:08:14;;;;;;;6.93;3.67;;;2.30;79.20;;;;;;5061405;28;20341;-82
2021/04/23 04:10:42;;;;;;;5.97;3.60;;;2.20;80.20;;;;;;5057749;28;20214;-81
2021/04/23 04:13:10;;;;;;;10.07;4.20;;;2.10;80.90;;;;;;5054224;28;20637;-81
2021/04/23 04:15:37;;;;;;;9.33;3.50;;;2.10;80.50;;;;;;5060192;28;20239;-83
2021/04/23 04:18:04;;;;;;;8.37;4.00;;;2.00;82.00;;;;;;5062349;28;20255;-84
2021/04/23 04:20:33;;;;;;;7.57;3.67;;;2.00;83.00;;;;;;5059735;28;20227;-84
2021/04/23 04:23:00;;;;;;;8.63;4.10;;;2.10;82.30;;;;;;5073362;28;20698;-82
2021/04/23 04:25:28;;;;;;;10.30;4.20;;;2.10;82.20;;;;;;5061711;28;20568;-83
2021/04/23 04:27:55;;;;;;;7.37;3.63;;;2.20;81.20;;;;;;5064631;28;20586;-83
2021/04/23 04:30:32;;;;;;;9.87;4.30;;;2.20;81.70;;;;;;5068699;28;20212;-85
2021/04/23 04:32:59;;;;;;;5.33;3.97;;;2.30;81.70;;;;;;5069978;28;20223;-82
2021/04/23 04:35:27;;;;;;;8.27;3.77;;;2.40;80.90;;;;;;5065437;28;20195;-83
2021/04/23 04:37:55;;;;;;;6.27;4.10;;;2.50;80.90;;;;;;5066635;28;20597;-84
2021/04/23 04:40:22;;;;;;;7.23;4.13;;;2.60;80.70;;;;;;5069491;28;20814;-84
2021/04/23 04:42:49;;;;;;;5.87;4.03;;;2.60;80.80;;;;;;5067442;28;20251;-83
2021/04/23 04:45:18;;;;;;;12.30;4.20;;;2.60;80.70;;;;;;5079213;28;20194;-84
2021/04/23 04:47:47;;;;;;;10.20;4.80;;;2.80;79.70;;;;;;5070361;28;20219;-84
2021/04/23 04:50:17;;;;;;;7.67;3.67;;;2.80;79.10;;;;;;5071729;28;20223;-84
2021/04/23 04:52:43;;;;;;;6.97;4.00;;;2.90;79.00;;;;;;5055221;28;20231;-84
2021/04/23 04:55:11;;;;;;;9.03;3.97;;;2.90;79.10;;;;;;5059620;28;20575;-82
2021/04/23 04:57:38;;;;;;;8.60;4.10;;;2.90;78.80;;;;;;5065484;28;20230;-83
2021/04/23 05:00:06;;;;;;;10.97;4.30;;;2.90;79.30;;;;;;5057119;28;20309;-84
2021/04/23 05:02:33;;;;;;;8.90;4.27;;;3.00;79.00;;;;;;5044356;28;20225;-83
2021/04/23 05:05:00;;;;;;;9.63;3.90;;;3.10;79.30;;;;;;5057189;28;20211;-85
2021/04/23 05:07:27;;;;;;;6.97;4.10;;;3.10;79.30;;;;;;5055698;28;20217;-84
2021/04/23 05:09:53;;;;;;;10.53;4.60;;;3.10;79.80;;;;;;5053902;28;20212;-84
2021/04/23 05:12:20;;;;;;;7.00;4.47;;;3.20;79.10;;;;;;5052293;28;20230;-83
2021/04/23 05:14:46;;;;;;;9.67;4.63;;;3.30;78.90;;;;;;5058345;28;20211;-84
2021/04/23 05:17:12;;;;;;;12.73;5.20;;;3.30;79.00;;;;;;5056891;28;20584;-83
2021/04/23 05:19:39;;;;;;;8.90;4.87;;;3.30;79.60;;;;;;5060757;28;20323;-85
2021/04/23 05:22:06;;;;;;;7.37;4.53;;;3.30;79.40;;;;;;5068244;28;20232;-85
2021/04/23 05:24:32;;;;;;;9.80;4.73;;;3.40;79.80;;;;;;5064390;28;20208;-84
2021/04/23 05:26:59;;;;;;;12.20;5.40;;;3.50;79.50;;;;;;5055915;28;20232;-86
2021/04/23 05:29:25;;;;;;;12.87;5.40;;;3.60;79.10;;;;;;5053073;28;20666;-82
2021/04/23 05:31:51;;;;;;;20.37;6.03;;;3.70;79.00;;;;;;5054642;28;20252;-87
2021/04/23 05:34:18;;;;;;;13.07;5.73;;;3.90;78.00;;;;;;5053974;28;20651;-87
2021/04/23 05:36:46;;;;;;;10.37;5.27;;;4.10;77.70;;;;;;5059304;28;20221;-88
2021/04/23 05:39:13;;;;;;;16.63;5.67;;;4.20;78.00;;;;;;5055639;28;20269;-85
2021/04/23 05:41:41;;;;;;;11.80;5.53;;;4.30;77.40;;;;;;5058374;28;20225;-85
2021/04/23 05:44:09;;;;;;;11.83;6.27;;;4.60;77.40;;;;;;5056568;28;20680;-85
2021/04/23 05:46:35;;;;;;;12.33;6.10;;;5.60;75.60;;;;;;5045308;28;20226;-88
2021/04/23 05:49:03;;;;;;;10.90;5.87;;;6.70;71.50;;;;;;5050117;28;20217;-87
2021/04/23 05:51:33;;;;;;;9.90;6.00;;;8.50;59.50;;;;;;5064589;28;20248;-87
2021/04/23 05:54:01;;;;;;;9.83;6.17;;;9.70;50.90;;;;;;5054085;28;20202;-87
2021/04/23 05:56:50;;;;;;;10.18;5.63;;;10.00;48.20;;;;;;5057068;28;20230;-86
2021/04/23 05:59:28;;;;;;;12.95;6.25;;;10.40;47.20;;;;;;5048207;28;20710;-86
2021/04/23 06:01:54;;;;;;;12.48;6.93;;;10.90;47.60;;;;;;5057189;28;20331;-86
2021/04/23 06:08:06;;;;;;;8.32;6.50;;;10.90;45.90;;;;;;5075891;28;20250;-86
2021/04/23 06:11:05;;;;;;;11.52;7.15;;;11.00;47.20;;;;;;5087774;28;20212;-86
2021/04/23 06:13:32;;;;;;;10.80;7.15;;;10.60;47.30;;;;;;5080215;28;20198;-86
2021/04/23 06:16:05;;;;;;;13.63;6.70;;;10.90;47.60;;;;;;5065165;28;20194;-87
2021/04/23 06:18:31;;;;;;;9.13;7.30;;;10.60;47.40;;;;;;5071279;28;20209;-89
2021/04/23 06:20:58;;;;;;;13.70;7.60;;;10.70;47.50;;;;;;5054761;28;20238;-87
2021/04/23 06:23:24;;;;;;;12.95;7.40;;;10.20;47.00;;;;;;5050708;28;20225;-87
2021/04/23 06:25:52;;;;;;;13.13;7.32;;;10.40;47.20;;;;;;5051613;28;20205;-86
2021/04/23 06:28:18;;;;;;;8.43;6.50;;;11.20;47.40;;;;;;5060520;28;20404;-85
2021/04/23 06:30:46;;;;;;;10.50;7.40;;;11.70;43.40;;;;;;5062058;28;20767;-85
2021/04/23 06:33:16;;;;;;;11.65;6.82;;;11.80;42.70;;;;;;5058343;28;20229;-87
2021/04/23 06:35:43;;;;;;;10.68;6.55;;;11.60;43.60;;;;;;5057649;28;20227;-87
2021/04/23 06:38:11;;;;;;;14.68;6.97;;;11.10;43.50;;;;;;5056446;28;20224;-86
2021/04/23 06:40:38;;;;;;;9.85;6.80;;;10.40;47.20;;;;;;5059600;28;20692;-85
2021/04/23 06:43:07;;;;;;;14.25;7.38;;;10.70;47.50;;;;;;5062840;28;20324;-86
2021/04/23 06:45:34;;;;;;;12.18;6.75;;;11.10;45.60;;;;;;5064496;28;20194;-85
2021/04/23 06:48:02;;;;;;;11.85;7.30;;;11.30;43.00;;;;;;5053150;28;20230;-86
2021/04/23 06:50:28;;;;;;;13.93;6.65;;;11.60;44.50;;;;;;5064366;28;20267;-85
2021/04/23 06:52:55;;;;;;;12.55;6.63;;;11.70;41.80;;;;;;5049568;28;20695;-86
2021/04/23 06:55:22;;;;;;;8.20;5.80;;;12.10;42.30;;;;;;5068887;28;20551;-89
2021/04/23 06:57:49;;;;;;;11.77;5.97;;;11.80;39.70;;;;;;5051374;28;20226;-87
2021/04/23 07:00:19;;;;;;;11.85;6.30;;;12.00;40.40;;;;;;5042756;28;20217;-85
2021/04/23 07:02:47;;;;;;;10.93;6.13;;;11.80;42.50;;;;;;5058548;28;20225;-86
2021/04/23 07:05:16;;;;;;;12.75;5.90;;;11.80;42.00;;;;;;5054782;28;20208;-85
2021/04/23 07:07:42;;;;;;;10.55;6.30;;;12.00;39.40;;;;;;5054069;28;20217;-87
2021/04/23 07:10:11;;;;;;;12.32;5.88;;;12.10;39.90;;;;;;5064229;28;20339;-86
2021/04/23 07:12:38;;;;;;;11.63;6.18;;;12.30;39.00;;;;;;5048408;28;20362;-86
2021/04/23 07:15:07;;;;;;;11.00;5.88;;;12.30;39.60;;;;;;5060609;28;20202;-86
2021/04/23 07:17:33;;;;;;;9.23;5.45;;;12.10;37.10;;;;;;5051724;28;20215;-88
2021/04/23 07:20:01;;;;;;;9.48;4.93;;;12.10;38.10;;;;;;5057789;28;20231;-85
2021/04/23 07:22:28;;;;;;;9.85;5.20;;;12.30;36.70;;;;;;5059163;28;20252;-88
2021/04/23 07:24:54;;;;;;;12.65;5.10;;;12.10;34.90;;;;;;5067576;28;20614;-86
2021/04/23 07:27:21;;;;;;;12.98;4.90;;;12.20;36.10;;;;;;5073144;28;20217;-86
2021/04/23 07:29:48;;;;;;;8.98;4.75;;;12.00;34.80;;;;;;5064762;28;20206;-89
2021/04/23 07:32:16;;;;;;;12.30;4.43;;;12.00;34.90;;;;;;5054113;28;20228;-89
2021/04/23 07:34:43;;;;;;;8.30;4.70;;;12.30;37.00;;;;;;5052738;28;20205;-87
2021/04/23 07:37:10;;;;;;;8.00;4.18;;;12.30;35.10;;;;;;5060056;28;20705;-87
2021/04/23 07:39:38;;;;;;;13.05;4.18;;;12.40;33.50;;;;;;5063242;28;20226;-87
2021/04/23 07:42:05;;;;;;;9.80;4.18;;;12.70;33.80;;;;;;5056821;28;21187;-88
2021/04/23 07:44:33;;;;;;;12.00;4.30;;;12.80;31.00;;;;;;5056452;28;20202;-89
2021/04/23 07:47:00;;;;;;;10.25;4.05;;;12.90;32.20;;;;;;5059424;28;20221;-88
2021/04/23 07:49:33;;;;;;;10.10;4.25;;;12.60;30.80;;;;;;5060222;28;20198;-89
2021/04/23 07:52:00;;;;;;;11.95;4.68;;;12.60;31.80;;;;;;5062437;28;20222;-90
2021/04/23 07:54:27;;;;;;;12.05;4.60;;;12.50;31.60;;;;;;5065210;28;20202;-89
2021/04/23 07:56:55;;;;;;;7.40;4.13;;;12.20;32.40;;;;;;5069696;28;20256;-89
2021/04/23 07:59:24;;;;;;;11.82;4.57;;;12.20;32.40;;;;;;5067571;28;20207;-90
2021/04/23 08:01:54;;;;;;;11.90;4.72;;;12.50;30.10;;;;;;5071730;28;20270;-90
2021/04/23 08:07:17;;;;;;;11.10;4.30;;;13.10;31.90;;;;;;5065955;28;20233;-90
2021/04/23 08:10:10;;;;;;;14.88;4.53;;;12.90;31.80;;;;;;5076952;28;20201;-90
2021/04/23 08:18:45;;;;;;;15.40;4.88;;;13.70;26.70;;;;;;5074962;28;20270;-89
2021/04/23 08:21:32;;;;;;;14.90;4.65;;;14.00;29.70;;;;;;5049887;28;20229;-89
2021/04/23 08:24:06;;;;;;;11.55;5.18;;;14.00;30.00;;;;;;5073692;28;20209;-88
2021/04/23 08:26:52;;;;;;;11.13;4.47;;;13.80;26.90;;;;;;5067431;28;20234;-88
2021/04/23 08:29:26;;;;;;;8.50;4.15;;;13.80;29.10;;;;;;5071030;28;20198;-89
2021/04/23 08:31:53;;;;;;;11.05;4.60;;;13.90;27.00;;;;;;5056949;28;20213;-89
2021/04/23 08:34:21;;;;;;;10.85;4.43;;;14.30;27.20;;;;;;5078273;28;20202;-89
2021/04/23 08:36:48;;;;;;;10.88;5.10;;;14.70;32.20;;;;;;5059571;28;20253;-88
2021/04/23 08:39:14;;;;;;;9.00;4.35;;;15.20;28.70;;;;;;5045541;28;20258;-86
2021/04/23 08:41:41;;;;;;;10.45;4.88;;;15.90;27.50;;;;;;5063963;28;20229;-87
2021/04/23 08:44:09;;;;;;;11.30;5.03;;;15.80;24.10;;;;;;5069597;28;20243;-87
2021/04/23 08:46:37;;;;;;;10.65;5.30;;;16.10;23.80;;;;;;5063666;28;20236;-90
2021/04/23 08:49:05;;;;;;;10.50;4.88;;;16.20;22.50;;;;;;5067660;28;20194;-89
2021/04/23 08:51:33;;;;;;;8.43;5.03;;;16.50;22.90;;;;;;5058548;28;20616;-89
2021/04/23 08:54:00;;;;;;;9.23;5.13;;;18.00;21.90;;;;;;5064544;28;20653;-83
2021/04/23 08:56:27;;;;;;;10.80;5.25;;;17.70;19.90;;;;;;5061848;28;20236;-86
2021/04/23 08:58:54;;;;;;;9.95;5.40;;;17.90;21.40;;;;;;5058355;28;20201;-86
2021/04/23 09:01:21;;;;;;;14.27;5.80;;;19.30;19.70;;;;;;5051662;28;20222;-87
2021/04/23 09:03:48;;;;;;;10.30;5.10;;;20.40;17.90;;;;;;5056296;28;20561;-83
2021/04/23 09:06:17;;;;;;;12.02;5.40;;;20.50;16.90;;;;;;5050708;28;20273;-86
2021/04/23 09:09:00;;;;;;;14.43;5.47;;;21.00;15.30;;;;;;5053952;28;20205;-86
2021/04/23 09:11:32;;;;;;;10.52;5.47;;;21.30;15.20;;;;;;5049715;28;20245;-87
2021/04/23 09:14:00;;;;;;;10.07;6.15;;;22.70;14.90;;;;;;5029880;28;20224;-87
2021/04/23 09:16:42;;;;;;;12.55;5.70;;;24.20;13.70;;;;;;5044519;28;20256;-87
2021/04/23 09:19:17;;;;;;;11.68;5.43;;;24.90;14.10;;;;;;5036602;28;20194;-88
2021/04/23 09:21:48;;;;;;;12.98;5.93;;;25.50;14.20;;;;;;5032391;28;20230;-87
2021/04/23 09:24:20;;;;;;;11.35;5.43;;;25.30;12.70;;;;;;5036150;28;20209;-88
2021/04/23 09:26:48;;;;;;;10.07;5.40;;;25.40;13.30;;;;;;5042285;28;20233;-88
2021/04/23 09:29:24;;;;;;;9.35;5.43;;;25.50;11.70;;;;;;5037255;28;20193;-88
2021/04/23 09:31:50;;;;;;;9.52;5.40;;;26.10;10.30;;;;;;5043834;28;20233;-88
2021/04/23 09:34:18;;;;;;;12.77;5.32;;;26.90;11.10;;;;;;5046036;28;20714;-88
2021/04/23 09:36:47;;;;;;;11.02;4.95;;;26.20;10.50;;;;;;5035438;28;20313;-88
2021/04/23 09:39:15;;;;;;;8.90;5.53;;;26.00;11.60;;;;;;5039730;28;20649;-88
2021/04/23 09:41:42;;;;;;;10.77;5.93;;;25.50;11.20;;;;;;5049804;28;20225;-88
2021/04/23 09:44:26;;;;;;;12.73;5.65;;;24.50;12.70;;;;;;5045578;28;20201;-84
2021/04/23 09:47:02;;;;;;;10.60;5.70;;;24.00;13.50;;;;;;5055722;28;20231;-85
2021/04/23 09:49:30;;;;;;;10.27;5.72;;;23.00;12.90;;;;;;5062447;28;20624;-84
2021/04/23 09:51:59;;;;;;;8.52;5.53;;;23.00;12.90;;;;;;5056615;28;20289;-86
2021/04/23 09:54:26;;;;;;;10.57;5.15;;;22.50;13.00;;;;;;5057149;28;20292;-84
2021/04/23 09:56:54;;;;;;;7.18;4.90;;;23.10;13.00;;;;;;5057821;28;20237;-85
2021/04/23 09:59:23;;;;;;;7.05;4.93;;;25.00;11.60;;;;;;5068054;28;20195;-84
2021/04/23 10:01:51;;;;;;;10.32;4.95;;;26.20;11.20;;;;;;5071934;28;20225;-85
2021/04/23 10:04:22;;;;;;;11.68;5.43;;;26.50;11.60;;;;;;5071234;28;20189;-83
2021/04/23 10:10:05;;;;;;;11.52;5.20;;;25.80;11.40;;;;;;5165739;27;20527;-88
2021/04/23 10:12:43;;;;;;;8.00;4.65;;;25.70;10.50;;;;;;5084714;27;20228;-87
2021/04/23 10:15:13;;;;;;;7.28;4.57;;;25.70;10.40;;;;;;5070004;28;20203;-92
2021/04/23 10:17:41;;;;;;;8.57;4.90;;;25.70;11.10;;;;;;5072038;28;20307;-85
2021/04/23 10:20:09;;;;;;;9.00;4.78;;;25.20;11.10;;;;;;5068686;28;20201;-87
2021/04/23 10:22:36;;;;;;;6.32;3.88;;;24.90;9.30;;;;;;5078952;28;20274;-84
2021/04/23 10:25:03;;;;;;;7.93;3.67;;;25.20;9.70;;;;;;5078931;28;20671;-88
2021/04/23 10:27:31;;;;;;;6.53;3.88;;;25.50;10.70;;;;;;5078534;28;20228;-88
2021/04/23 10:29:59;;;;;;;7.57;4.10;;;25.30;10.10;;;;;;5078899;28;20204;-85
2021/04/23 10:32:26;;;;;;;8.30;3.70;;;25.50;10.10;;;;;;5087964;28;20358;-87
2021/04/23 10:34:53;;;;;;;8.02;4.10;;;25.40;8.70;;;;;;5094357;28;20200;-85
2021/04/23 10:37:22;;;;;;;8.07;3.53;;;25.50;9.70;;;;;;5096870;28;20283;-83
2021/04/23 10:39:49;;;;;;;7.88;4.35;;;25.40;10.70;;;;;;5099186;28;20194;-83
2021/04/23 10:46:09;;;;;;;6.07;4.28;;;23.00;11.40;;;;;;5100901;28;20218;-83
2021/04/23 10:48:38;;;;;;;6.00;3.70;;;22.80;11.50;;;;;;5120617;28;20673;-85
2021/04/23 10:51:09;;;;;;;9.30;4.38;;;23.10;13.00;;;;;;5128624;28;20193;-84
2021/04/23 10:53:44;;;;;;;10.43;4.75;;;23.70;14.80;;;;;;5125275;28;20227;-89
2021/04/23 10:56:20;;;;;;;8.48;4.25;;;22.80;12.80;;;;;;5108499;28;20204;-87
2021/04/23 10:58:58;;;;;;;6.03;4.18;;;22.50;11.50;;;;;;5112889;28;20209;-91
2021/04/23 11:01:31;;;;;;;9.05;4.80;;;22.40;11.70;;;;;;5112856;28;20357;-88
2021/04/23 11:04:17;;;;;;;9.07;4.50;;;21.80;13.70;;;;;;5110376;28;20187;-87
2021/04/23 11:09:57;;;;;;;8.90;4.60;;;20.60;13.20;;;;;;5102290;28;20216;-90
2021/04/23 11:12:25;;;;;;;9.18;4.70;;;20.10;15.30;;;;;;5101466;28;20289;-89
2021/04/23 11:15:11;;;;;;;9.93;4.78;;;19.50;17.30;;;;;;5094912;28;20549;-91
2021/04/23 11:17:39;;;;;;;8.68;4.15;;;18.70;16.90;;;;;;5107749;28;20593;-93
2021/04/23 11:20:30;;;;;;;7.32;4.40;;;18.60;19.40;;;;;;5093641;28;20212;-93
2021/04/23 11:23:14;;;;;;;7.75;4.40;;;18.50;17.80;;;;;;5067477;28;20208;-91
2021/04/23 11:26:13;;;;;;;8.60;4.30;;;18.00;16.00;;;;;;5097190;28;20576;-93
2021/04/23 11:29:12;;;;;;;8.35;4.45;;;17.50;18.70;;;;;;5062463;28;20244;-92
2021/04/23 11:32:15;;;;;;;8.73;4.10;;;17.40;16.30;;;;;;5088951;28;20644;-92
2021/04/23 11:34:46;;;;;;;10.65;4.30;;;17.40;16.70;;;;;;5078477;28;20287;-90
2021/04/23 11:37:15;;;;;;;8.23;4.40;;;17.20;18.70;;;;;;5079489;28;20255;-91
2021/04/23 11:39:44;;;;;;;6.32;4.18;;;17.10;17.60;;;;;;5083788;28;20262;-89
2021/04/23 11:42:14;;;;;;;8.68;4.10;;;17.10;17.50;;;;;;5081468;28;20220;-90
2021/04/23 11:44:44;;;;;;;8.52;4.60;;;16.80;16.80;;;;;;5086228;28;20208;-92
2021/04/23 11:47:11;;;;;;;7.30;4.57;;;17.00;18.80;;;;;;5078506;28;20629;-90
2021/04/23 11:49:37;;;;;;;11.15;4.57;;;17.00;18.40;;;;;;5081464;28;20213;-92
2021/04/23 11:52:05;;;;;;;7.63;4.60;;;17.00;19.10;;;;;;5085840;28;20235;-90
2021/04/23 11:54:42;;;;;;;10.18;4.85;;;16.90;18.00;;;;;;5084469;28;20201;-92
2021/04/23 11:57:12;;;;;;;9.32;4.72;;;17.10;18.30;;;;;;5082660;28;20221;-90
2021/04/23 12:00:00;;;;;;;11.70;5.00;;;16.70;18.60;;;;;;5073513;28;20196;-91
2021/04/23 12:02:52;;;;;;;9.02;4.20;;;16.70;18.20;;;;;;5076396;28;20240;-89
2021/04/23 12:05:31;;;;;;;7.15;3.95;;;16.60;18.10;;;;;;5082996;28;20828;-92
2021/04/23 12:08:07;;;;;;;9.25;4.32;;;16.70;18.60;;;;;;5081080;28;20238;-93
2021/04/23 12:10:38;;;;;;;13.40;4.85;;;16.60;17.50;;;;;;5096863;28;20291;-93
2021/04/23 12:13:13;;;;;;;10.20;4.32;;;16.40;17.90;;;;;;5084070;28;20231;-93
2021/04/23 12:15:41;;;;;;;7.00;3.80;;;16.50;18.00;;;;;;5092209;28;20279;-93
2021/04/23 12:18:10;;;;;;;8.88;4.38;;;16.70;21.40;;;;;;5091647;28;20228;-89
2021/04/23 12:20:40;;;;;;;7.53;4.20;;;16.70;18.10;;;;;;5095367;28;20212;-88
2021/04/23 12:23:09;;;;;;;7.22;3.95;;;16.50;17.90;;;;;;5096277;28;20258;-91
2021/04/23 12:25:41;;;;;;;9.60;4.03;;;16.60;19.00;;;;;;5090266;28;20757;-90
2021/04/23 12:28:22;;;;;;;7.75;3.85;;;16.40;17.60;;;;;;5089504;28;20229;-90
2021/04/23 12:30:51;;;;;;;9.00;4.18;;;16.40;18.00;;;;;;5084314;28;20196;-90
2021/04/23 12:33:18;;;;;;;7.68;3.80;;;16.40;17.70;;;;;;5093046;28;20220;-90
2021/04/23 12:35:47;;;;;;;8.88;4.07;;;16.40;17.10;;;;;;5095450;28;20235;-91
2021/04/23 12:38:16;;;;;;;8.73;3.88;;;16.40;16.50;;;;;;5096339;28;20232;-89
2021/04/23 12:40:45;;;;;;;7.18;3.80;;;15.90;16.80;;;;;;5092268;28;20193;-92
2021/04/23 12:43:19;;;;;;;10.30;4.07;;;16.20;19.60;;;;;;5093738;28;20335;-92
2021/04/23 12:48:32;;;;;;;8.60;3.47;;;16.30;17.40;;;;;;5091701;28;20272;-90
2021/04/23 12:50:59;;;;;;;8.10;4.00;;;16.10;17.80;;;;;;5098495;28;20236;-91
2021/04/23 12:53:27;;;;;;;9.05;3.90;;;16.10;17.80;;;;;;5102692;28;20307;-89
2021/04/23 12:55:55;;;;;;;7.95;3.20;;;16.10;17.70;;;;;;5095407;28;20209;-90
2021/04/23 12:58:21;;;;;;;7.85;4.13;;;16.10;16.30;;;;;;5100427;28;20220;-90
2021/04/23 13:01:02;;;;;;;6.00;4.00;;;16.20;16.10;;;;;;5098581;28;20247;-90
2021/04/23 13:03:28;;;;;;;5.68;3.47;;;16.20;16.80;;;;;;5095099;28;20221;-90
2021/04/23 13:05:55;;;;;;;6.70;3.20;;;16.40;17.80;;;;;;5095525;28;20304;-90
2021/04/23 13:08:32;;;;;;;9.13;3.63;;;16.50;18.00;;;;;;5097555;28;20663;-91
2021/04/23 13:11:01;;;;;;;6.10;3.30;;;16.40;16.70;;;;;;5102165;28;20212;-92
2021/04/23 13:13:27;;;;;;;8.68;3.70;;;15.90;16.20;;;;;;5088155;28;20255;-89
2021/04/23 13:16:05;;;;;;;8.77;3.50;;;16.20;17.40;;;;;;5086927;28;20257;-93
2021/04/23 13:18:32;;;;;;;5.13;3.30;;;16.10;15.10;;;;;;5096890;28;20705;-92
2021/04/23 13:26:32;;;;;;;6.95;4.00;;;16.30;15.90;;;;;;5085598;28;20231;-91
2021/04/23 13:29:02;;;;;;;4.15;3.10;;;16.10;16.50;;;;;;5112275;28;20262;-90
2021/04/23 13:31:32;;;;;;;10.90;3.10;;;16.00;15.90;;;;;;5097961;28;20224;-92